Terminal Aerodrome Forecast
Issued by NWS

Home | Current Version | Previous Version | Text Only | Print | Product List | Glossary On
Versions: 1 2 3 4 5 6 7 8 9 10 11 12 13 14 15 16 17 18 19 20 21 22 23 24 25 26 27 28 29 30 31 32
000
FTUS45 KLKN 291700
TAFTPH
TAF
KTPH 291720Z 2918/3018 35009KT P6SM VCSH SCT040 OVC070
     FM292000 36012G22KT P6SM VCTS BKN060CB
      TEMPO 2920/2924 VRB15G35KT TSRA BKN050CB
     FM300000 35015G25KT P6SM VCTS SCT040CB OVC060
     FM300300 35015G25KT P6SM VCSH SCT060 BKN080=

USA.gov is the U.S. government's official web portal to all federal, state and local government web resources and services.